Azalea, Oregon
Current Conditions -  °F | °C
As of 8:15 AM on Sunday 23 Nov 2014 (Local Time) from KSXT Reporting Station
Moderate Fog Moderate Fog  
Wind Chill: 29°   Ceiling: 100
Heat Index: 35°   Visibility: 0.25mi
Dew Point: 35°   Wind: 7mph
Humidity: 100%   Direction: 140°SE
Pressure: 30.35"   Gusts: NA
Location:  42.8°N, 123.26°W
Report Text: KSXT 231615Z AUTO 14006KT 1/4SM FG BKN001 OVC120 02/02 A3035 RMK AO2 T00170017 $
Loading
Personal Weather Stations






























Interactive Weather Map New forecast layout! Learn more

10-Day Weather Forecast

Advertisements
Track Severe Weather on mobile